Woodward, OK

4:57 AM CST on January 22, 2017 (GMT -0600)
West Woodward

Weather History for KWWR - December, 2013

Change the Weather History Date:

Saturday, December 14, 2013

  Actual Average (KGAG) Record (KGAG)
Temperature  
Mean Temperature 36 °F -  
Max Temperature 48 °F 47 °F 74 °F (1948)
Min Temperature 24 °F 22 °F 0 °F (1963)
Degree Days  
Heating Degree Days 29    
Moisture  
Dew Point 24 °F    
Average Humidity 67    
Maximum Humidity 86    
Minimum Humidity 40    
Precipitation  
Precipitation 0.00 in - - ()
Sea Level Pressure  
Sea Level Pressure 30.20 in    
Wind  
Wind Speed 15 mph (NW)    
Max Wind Speed 22 mph    
Max Gust Speed 28 mph    
Visibility 10 miles    
Events      
Averages and records for this station are not official NWS values.
T = Trace of Precipitation, MM = Missing Value Source: NWS Daily Summary

Daily Weather History Graph

Daily Weather History Graph

Search for Another Location

Airport or City:

Trip Planner

Search our weather history database for the weather conditions in past years. The results will help you decide how hot, cold, wet, or windy it might be!

Date:

Astronomy

Dec. 14, 2013 Rise Set
Actual Time 7:42 AM CST 5:23 PM CST
Civil Twilight 7:13 AM CST 5:52 PM CST
Nautical Twilight 6:41 AM CST 6:24 PM CST
Astronomical Twilight 6:09 AM CST 6:56 PM CST
Moon 3:44 PM CST (12/14) 5:07 AM CST (12/14)
Length of Visible Light 10h 39m
Length of Day
9h 41m
Waxing Gibbous, 94% of the Moon is Illuminated
Dec 14
Waxing Gibbous
Dec 17
Full
Dec 25
Last Quarter
Jan 1
New
Jan 7
First Quarter

Hourly Weather History & Observations

Time (CST) Temp. Windchill Dew Point Humidity Pressure Visibility Wind Dir Wind Speed Gust Speed Precip Events Conditions
12:15 AM 32.0 °F 21.2 °F 26.6 °F 80% 29.96 in 10.0 mi NNW 16.1 mph 20.7 mph N/A   Clear
12:35 AM 30.2 °F 19.3 °F 24.8 °F 80% 29.97 in 10.0 mi NNW 15.0 mph 20.7 mph N/A   Clear
12:55 AM 30.2 °F 18.5 °F 24.8 °F 80% 29.98 in 10.0 mi NNW 17.3 mph - N/A   Clear
1:15 AM 30.2 °F 19.3 °F 24.8 °F 80% 30.00 in 10.0 mi NNW 15.0 mph 21.9 mph N/A   Clear
1:35 AM 30.2 °F 18.9 °F 24.8 °F 80% 30.00 in 10.0 mi NNW 16.1 mph - N/A   Scattered Clouds
1:55 AM 28.4 °F 16.6 °F 24.8 °F 86% 30.02 in 10.0 mi NNW 16.1 mph - N/A   Mostly Cloudy
2:15 AM 28.4 °F 17.5 °F 24.8 °F 86% 30.04 in 10.0 mi North 13.8 mph - N/A   Overcast
2:35 AM 28.4 °F 16.2 °F 23.0 °F 80% 30.05 in 10.0 mi NNW 17.3 mph 24.2 mph N/A   Overcast
2:55 AM 28.4 °F 14.7 °F 23.0 °F 80% 30.06 in 10.0 mi NNW 21.9 mph 26.5 mph N/A   Overcast
3:15 AM 28.4 °F 15.4 °F 23.0 °F 80% 30.07 in 10.0 mi NNW 19.6 mph 26.5 mph N/A   Overcast
3:35 AM 28.4 °F 14.7 °F 23.0 °F 80% 30.09 in 10.0 mi NNW 21.9 mph 27.6 mph N/A   Overcast
3:55 AM 28.4 °F 15.1 °F 23.0 °F 80% 30.09 in 10.0 mi NNW 20.7 mph 26.5 mph N/A   Overcast
4:15 AM 28.4 °F 15.4 °F 23.0 °F 80% 30.10 in 10.0 mi NNW 19.6 mph 27.6 mph N/A   Overcast
4:35 AM 30.2 °F 17.4 °F 23.0 °F 75% 30.11 in 10.0 mi NNW 20.7 mph 25.3 mph N/A   Overcast
4:55 AM 30.2 °F 17.4 °F 24.8 °F 80% 30.11 in 10.0 mi NNW 20.7 mph 24.2 mph N/A   Overcast
5:15 AM 30.2 °F 19.8 °F 24.8 °F 80% 30.12 in 10.0 mi NNW 13.8 mph 23.0 mph N/A   Overcast
5:35 AM 30.2 °F 18.9 °F 24.8 °F 80% 30.13 in 10.0 mi NNW 16.1 mph 23.0 mph N/A   Overcast
5:55 AM 30.2 °F 20.2 °F 24.8 °F 80% 30.13 in 10.0 mi NNW 12.7 mph - N/A   Mostly Cloudy
6:15 AM 28.4 °F 17.5 °F 23.0 °F 80% 30.13 in 10.0 mi NNW 13.8 mph 19.6 mph N/A   Mostly Cloudy
6:35 AM 28.4 °F 16.6 °F 23.0 °F 80% 30.14 in 10.0 mi NNW 16.1 mph 19.6 mph N/A   Scattered Clouds
6:55 AM 26.6 °F 14.7 °F 21.2 °F 80% 30.16 in 10.0 mi NNW 15.0 mph 23.0 mph N/A   Clear
7:15 AM 26.6 °F 14.7 °F 21.2 °F 80% 30.17 in 10.0 mi NNW 15.0 mph 20.7 mph N/A   Clear
7:35 AM 26.6 °F 14.7 °F 21.2 °F 80% 30.18 in 10.0 mi NNW 15.0 mph 18.4 mph N/A   Clear
7:55 AM 24.8 °F 13.4 °F 21.2 °F 86% 30.19 in 10.0 mi NNW 12.7 mph 18.4 mph N/A   Mostly Cloudy
8:15 AM 26.6 °F 14.3 °F 21.2 °F 80% 30.21 in 10.0 mi NNW 16.1 mph 23.0 mph N/A   Overcast
8:35 AM 26.6 °F 15.7 °F 21.2 °F 80% 30.22 in 10.0 mi NNW 12.7 mph - N/A   Overcast
8:55 AM 26.6 °F 15.7 °F 21.2 °F 80% 30.23 in 10.0 mi NNW 12.7 mph 19.6 mph N/A   Overcast
9:15 AM 26.6 °F 13.8 °F 21.2 °F 80% 30.24 in 10.0 mi NNW 17.3 mph 20.7 mph N/A   Overcast
9:35 AM 28.4 °F 16.2 °F 21.2 °F 74% 30.25 in 10.0 mi NNW 17.3 mph 23.0 mph N/A   Overcast
9:55 AM 28.4 °F 17.5 °F 21.2 °F 74% 30.27 in 10.0 mi NNW 13.8 mph 17.3 mph N/A   Overcast
10:15 AM 30.2 °F 19.3 °F 23.0 °F 75% 30.28 in 10.0 mi NNW 15.0 mph - N/A   Scattered Clouds
10:35 AM 32.0 °F 22.5 °F 23.0 °F 69% 30.28 in 10.0 mi NNW 12.7 mph 17.3 mph N/A   Clear
10:55 AM 32.0 °F 22.1 °F 23.0 °F 69% 30.28 in 10.0 mi NNW 13.8 mph - N/A   Clear
11:15 AM 33.8 °F 23.2 °F 21.2 °F 60% 30.28 in 10.0 mi NNW 17.3 mph 21.9 mph N/A   Clear
11:35 AM 35.6 °F 25.5 °F 19.4 °F 52% 30.28 in 10.0 mi NW 17.3 mph 24.2 mph N/A   Clear
11:55 AM 37.4 °F 28.5 °F 19.4 °F 48% 30.28 in 10.0 mi NNW 15.0 mph 21.9 mph N/A   Clear
12:15 PM 37.4 °F 27.2 °F 19.4 °F 48% 30.27 in 10.0 mi NNW 19.6 mph 25.3 mph N/A   Clear
12:35 PM 41.0 °F 33.9 °F 19.4 °F 42% 30.27 in 10.0 mi NNW 12.7 mph 18.4 mph N/A   Clear
12:55 PM 41.0 °F 32.8 °F 23.0 °F 49% 30.26 in 10.0 mi NW 16.1 mph 25.3 mph N/A   Clear
1:15 PM 42.8 °F 35.1 °F 23.0 °F 46% 30.26 in 10.0 mi NW 16.1 mph 19.6 mph N/A   Clear
1:35 PM 44.6 °F 38.1 °F 23.0 °F 43% 30.25 in 10.0 mi NW 13.8 mph - N/A   Clear
1:55 PM 44.6 °F 37.4 °F 23.0 °F 43% 30.25 in 10.0 mi NNW 16.1 mph 20.7 mph N/A   Clear
2:15 PM 46.4 °F 40.1 °F 23.0 °F 40% 30.25 in 10.0 mi NNW 15.0 mph 19.6 mph N/A   Clear
2:35 PM 46.4 °F 41.1 °F 24.8 °F 43% 30.25 in 10.0 mi NNW 11.5 mph 18.4 mph N/A   Clear
2:55 PM 46.4 °F 41.1 °F 24.8 °F 43% 30.25 in 10.0 mi NNW 11.5 mph 19.6 mph N/A   Clear
3:15 PM 46.4 °F 41.1 °F 24.8 °F 43% 30.25 in 10.0 mi NNW 11.5 mph - N/A   Clear
3:35 PM 48.2 °F - 24.8 °F 40% 30.25 in 10.0 mi NNW 13.8 mph - N/A   Clear
3:55 PM 46.4 °F 41.1 °F 26.6 °F 46% 30.25 in 10.0 mi NNW 11.5 mph - N/A   Clear
4:15 PM 46.4 °F 41.9 °F 26.6 °F 46% 30.24 in 10.0 mi NW 9.2 mph - N/A   Clear
4:35 PM 46.4 °F 42.4 °F 26.6 °F 46% 30.24 in 10.0 mi NNW 8.1 mph - N/A   Clear
4:55 PM 44.6 °F 41.4 °F 26.6 °F 49% 30.25 in 10.0 mi NNW 5.8 mph - N/A   Clear
5:15 PM 42.8 °F 41.1 °F 26.6 °F 53% 30.25 in 10.0 mi NW 3.5 mph - N/A   Clear
5:35 PM 42.8 °F - 26.6 °F 53% 30.25 in 10.0 mi Calm Calm - N/A   Clear
5:55 PM 41.0 °F 39.0 °F 26.6 °F 57% 30.26 in 10.0 mi West 3.5 mph - N/A   Clear
6:15 PM 42.8 °F - 26.6 °F 53% 30.25 in 10.0 mi Calm Calm - N/A   Clear
6:35 PM 42.8 °F - 26.6 °F 53% 30.25 in 10.0 mi Calm Calm - N/A   Clear
6:55 PM 35.6 °F 28.6 °F 24.8 °F 65% 30.26 in 10.0 mi SSW 9.2 mph - N/A   Clear
7:15 PM 35.6 °F 29.9 °F 24.8 °F 65% 30.26 in 10.0 mi SW 6.9 mph - N/A   Clear
7:35 PM 35.6 °F 28.6 °F 24.8 °F 65% 30.26 in 10.0 mi SW 9.2 mph - N/A   Clear
7:55 PM 32.0 °F 23.6 °F 24.8 °F 75% 30.26 in 10.0 mi SSW 10.4 mph - N/A   Clear
8:15 PM 33.8 °F 27.0 °F 24.8 °F 70% 30.26 in 10.0 mi SW 8.1 mph - N/A   Clear
8:35 PM 32.0 °F 23.6 °F 24.8 °F 75% 30.27 in 10.0 mi SW 10.4 mph - N/A   Clear
8:55 PM 32.0 °F 23.6 °F 24.8 °F 75% 30.27 in 10.0 mi SW 10.4 mph - N/A   Clear
9:15 PM 32.0 °F 23.0 °F 23.0 °F 69% 30.27 in 10.0 mi SW 11.5 mph - N/A   Clear
9:35 PM 32.0 °F 23.6 °F 23.0 °F 69% 30.27 in 10.0 mi SW 10.4 mph - N/A   Clear
9:55 PM 32.0 °F 23.6 °F 23.0 °F 69% 30.27 in 10.0 mi SSW 10.4 mph - N/A   Clear
10:15 PM 32.0 °F 23.6 °F 23.0 °F 69% 30.27 in 10.0 mi SW 10.4 mph - N/A   Clear
10:35 PM 32.0 °F 23.6 °F 23.0 °F 69% 30.28 in 10.0 mi SW 10.4 mph - N/A   Clear
10:55 PM 32.0 °F 23.0 °F 23.0 °F 69% 30.27 in 10.0 mi SSW 11.5 mph - N/A   Clear
11:15 PM 30.2 °F 21.3 °F 23.0 °F 75% 30.27 in 10.0 mi SSW 10.4 mph - N/A   Clear
11:35 PM 30.2 °F 21.3 °F 23.0 °F 75% 30.27 in 10.0 mi SW 10.4 mph - N/A   Clear
11:55 PM 30.2 °F 21.3 °F 23.0 °F 75% 30.27 in 10.0 mi SW 10.4 mph - N/A   Clear